sensor_id;sensor_type;location;lat;lon;timestamp;P1;durP1;ratioP1;P2;durP2;ratioP2
54557;SDS011;40452;50.080;20.040;2023-07-31T03:14:13;4.82;;;2.25;;
54557;SDS011;40452;50.080;20.040;2023-07-31T03:16:38;3.30;;;2.33;;
54557;SDS011;40452;50.080;20.040;2023-07-31T03:19:04;3.78;;;2.38;;
54557;SDS011;40452;50.080;20.040;2023-07-31T03:21:30;5.32;;;2.15;;
54557;SDS011;40452;50.080;20.040;2023-07-31T03:23:55;3.35;;;2.35;;
54557;SDS011;40452;50.080;20.040;2023-07-31T03:26:21;4.32;;;2.33;;
54557;SDS011;40452;50.080;20.040;2023-07-31T03:28:46;3.25;;;2.13;;
54557;SDS011;40452;50.080;20.040;2023-07-31T03:31:12;2.50;;;1.90;;
54557;SDS011;40452;50.080;20.040;2023-07-31T03:33:38;4.22;;;2.65;;
54557;SDS011;40452;50.080;20.040;2023-07-31T03:36:03;12.35;;;2.95;;
54557;SDS011;40452;50.080;20.040;2023-07-31T03:38:29;4.85;;;2.30;;
54557;SDS011;40452;50.080;20.040;2023-07-31T03:40:55;4.70;;;2.50;;
54557;SDS011;40452;50.080;20.040;2023-07-31T03:43:20;3.33;;;2.13;;
54557;SDS011;40452;50.080;20.040;2023-07-31T03:45:46;4.50;;;2.40;;
54557;SDS011;40452;50.080;20.040;2023-07-31T03:48:13;7.00;;;2.17;;
54557;SDS011;40452;50.080;20.040;2023-07-31T03:50:39;4.43;;;2.20;;
54557;SDS011;40452;50.080;20.040;2023-07-31T03:53:05;3.60;;;2.08;;
54557;SDS011;40452;50.080;20.040;2023-07-31T03:55:30;6.72;;;2.38;;
54557;SDS011;40452;50.080;20.040;2023-07-31T03:57:56;4.80;;;2.30;;
54557;SDS011;40452;50.080;20.040;2023-07-31T04:00:22;4.30;;;2.35;;
54557;SDS011;40452;50.080;20.040;2023-07-31T04:02:47;4.55;;;2.28;;
54557;SDS011;40452;50.080;20.040;2023-07-31T04:05:13;6.35;;;2.72;;
54557;SDS011;40452;50.080;20.040;2023-07-31T04:07:39;4.00;;;2.03;;
54557;SDS011;40452;50.080;20.040;2023-07-31T04:10:04;5.57;;;2.30;;
54557;SDS011;40452;50.080;20.040;2023-07-31T04:12:30;4.80;;;2.22;;
54557;SDS011;40452;50.080;20.040;2023-07-31T04:14:55;4.38;;;1.98;;
54557;SDS011;40452;50.080;20.040;2023-07-31T04:17:21;5.55;;;2.10;;
54557;SDS011;40452;50.080;20.040;2023-07-31T04:19:46;3.92;;;2.05;;
54557;SDS011;40452;50.080;20.040;2023-07-31T04:22:13;4.57;;;2.30;;
54557;SDS011;40452;50.080;20.040;2023-07-31T04:24:39;3.92;;;2.13;;
54557;SDS011;40452;50.080;20.040;2023-07-31T04:27:04;5.38;;;2.55;;
54557;SDS011;40452;50.080;20.040;2023-07-31T04:29:30;5.75;;;2.35;;
54557;SDS011;40452;50.080;20.040;2023-07-31T04:31:55;3.78;;;2.13;;
54557;SDS011;40452;50.080;20.040;2023-07-31T04:34:21;4.40;;;2.00;;
54557;SDS011;40452;50.080;20.040;2023-07-31T04:36:47;3.13;;;1.67;;
54557;SDS011;40452;50.080;20.040;2023-07-31T04:39:12;2.53;;;1.90;;
54557;SDS011;40452;50.080;20.040;2023-07-31T04:41:38;4.57;;;2.00;;
54557;SDS011;40452;50.080;20.040;2023-07-31T04:44:03;3.60;;;2.10;;
54557;SDS011;40452;50.080;20.040;2023-07-31T04:46:29;2.92;;;1.80;;
54557;SDS011;40452;50.080;20.040;2023-07-31T04:48:55;3.33;;;1.80;;
54557;SDS011;40452;50.080;20.040;2023-07-31T04:51:21;4.15;;;2.13;;
54557;SDS011;40452;50.080;20.040;2023-07-31T04:53:46;3.55;;;2.20;;
54557;SDS011;40452;50.080;20.040;2023-07-31T04:56:12;3.30;;;1.73;;
54557;SDS011;40452;50.080;20.040;2023-07-31T04:58:37;2.70;;;1.80;;
54557;SDS011;40452;50.080;20.040;2023-07-31T05:01:03;11.20;;;2.17;;
54557;SDS011;40452;50.080;20.040;2023-07-31T05:03:28;3.85;;;2.00;;
54557;SDS011;40452;50.080;20.040;2023-07-31T05:05:54;3.33;;;2.00;;
54557;SDS011;40452;50.080;20.040;2023-07-31T05:08:19;3.20;;;1.92;;
54557;SDS011;40452;50.080;20.040;2023-07-31T05:10:45;3.47;;;2.00;;
54557;SDS011;40452;50.080;20.040;2023-07-31T05:13:11;5.43;;;1.98;;
54557;SDS011;40452;50.080;20.040;2023-07-31T05:15:36;6.93;;;2.00;;
54557;SDS011;40452;50.080;20.040;2023-07-31T05:18:03;4.63;;;1.90;;
54557;SDS011;40452;50.080;20.040;2023-07-31T05:20:28;4.75;;;1.83;;
54557;SDS011;40452;50.080;20.040;2023-07-31T05:22:54;8.35;;;2.13;;
54557;SDS011;40452;50.080;20.040;2023-07-31T05:25:19;5.95;;;2.45;;
54557;SDS011;40452;50.080;20.040;2023-07-31T05:27:45;4.95;;;2.40;;
54557;SDS011;40452;50.080;20.040;2023-07-31T05:30:10;3.00;;;2.17;;
54557;SDS011;40452;50.080;20.040;2023-07-31T05:32:36;4.63;;;2.47;;
54557;SDS011;40452;50.080;20.040;2023-07-31T05:35:02;7.03;;;2.30;;
54557;SDS011;40452;50.080;20.040;2023-07-31T05:37:27;3.72;;;2.40;;
54557;SDS011;40452;50.080;20.040;2023-07-31T05:39:53;4.05;;;2.38;;
54557;SDS011;40452;50.080;20.040;2023-07-31T05:42:19;4.40;;;2.30;;
54557;SDS011;40452;50.080;20.040;2023-07-31T14:49:29;6.55;;;1.60;;
54557;SDS011;40452;50.080;20.040;2023-07-31T14:51:55;3.00;;;1.52;;
54557;SDS011;40452;50.080;20.040;2023-07-31T14:54:21;3.17;;;1.42;;
54557;SDS011;40452;50.080;20.040;2023-07-31T14:56:46;2.70;;;1.50;;
54557;SDS011;40452;50.080;20.040;2023-07-31T14:59:12;3.42;;;1.70;;
54557;SDS011;40452;50.080;20.040;2023-07-31T15:01:38;5.07;;;2.05;;
54557;SDS011;40452;50.080;20.040;2023-07-31T15:04:04;4.18;;;1.52;;
54557;SDS011;40452;50.080;20.040;2023-07-31T15:06:29;2.00;;;1.38;;
54557;SDS011;40452;50.080;20.040;2023-07-31T15:08:55;3.28;;;1.38;;
54557;SDS011;40452;50.080;20.040;2023-07-31T15:11:20;3.40;;;1.58;;
54557;SDS011;40452;50.080;20.040;2023-07-31T15:13:46;2.88;;;1.23;;
54557;SDS011;40452;50.080;20.040;2023-07-31T15:16:12;7.43;;;1.50;;
54557;SDS011;40452;50.080;20.040;2023-07-31T15:18:37;1.52;;;1.13;;
54557;SDS011;40452;50.080;20.040;2023-07-31T15:21:03;5.13;;;1.30;;
54557;SDS011;40452;50.080;20.040;2023-07-31T15:23:30;1.88;;;1.30;;
54557;SDS011;40452;50.080;20.040;2023-07-31T15:25:56;5.43;;;1.30;;
54557;SDS011;40452;50.080;20.040;2023-07-31T15:28:22;3.47;;;1.30;;
54557;SDS011;40452;50.080;20.040;2023-07-31T15:30:47;2.72;;;1.38;;
54557;SDS011;40452;50.080;20.040;2023-07-31T15:33:13;3.75;;;1.42;;
54557;SDS011;40452;50.080;20.040;2023-07-31T15:35:39;2.08;;;1.30;;
54557;SDS011;40452;50.080;20.040;2023-07-31T15:38:06;5.70;;;1.50;;
54557;SDS011;40452;50.080;20.040;2023-07-31T15:40:31;2.58;;;1.40;;
54557;SDS011;40452;50.080;20.040;2023-07-31T15:42:57;2.88;;;1.35;;
54557;SDS011;40452;50.080;20.040;2023-07-31T15:45:23;5.00;;;1.35;;
54557;SDS011;40452;50.080;20.040;2023-07-31T15:47:48;2.55;;;1.30;;
54557;SDS011;40452;50.080;20.040;2023-07-31T15:50:14;2.75;;;1.20;;
54557;SDS011;40452;50.080;20.040;2023-07-31T15:52:39;2.50;;;1.40;;
54557;SDS011;40452;50.080;20.040;2023-07-31T15:55:05;3.45;;;1.17;;
54557;SDS011;40452;50.080;20.040;2023-07-31T15:57:31;2.17;;;1.48;;
54557;SDS011;40452;50.080;20.040;2023-07-31T15:59:57;5.03;;;1.60;;
54557;SDS011;40452;50.080;20.040;2023-07-31T16:02:22;5.78;;;1.70;;
54557;SDS011;40452;50.080;20.040;2023-07-31T16:04:48;11.18;;;1.60;;
54557;SDS011;40452;50.080;20.040;2023-07-31T16:07:13;5.18;;;1.38;;
54557;SDS011;40452;50.080;20.040;2023-07-31T16:09:39;4.82;;;1.40;;
54557;SDS011;40452;50.080;20.040;2023-07-31T16:12:05;3.40;;;1.60;;
54557;SDS011;40452;50.080;20.040;2023-07-31T16:14:31;2.35;;;1.35;;
54557;SDS011;40452;50.080;20.040;2023-07-31T16:16:57;8.10;;;1.40;;
54557;SDS011;40452;50.080;20.040;2023-07-31T16:19:22;3.83;;;1.40;;
54557;SDS011;40452;50.080;20.040;2023-07-31T16:21:48;3.00;;;1.30;;
54557;SDS011;40452;50.080;20.040;2023-07-31T16:24:13;2.75;;;1.30;;
54557;SDS011;40452;50.080;20.040;2023-07-31T16:26:39;4.25;;;1.52;;
54557;SDS011;40452;50.080;20.040;2023-07-31T16:29:05;3.33;;;1.20;;
54557;SDS011;40452;50.080;20.040;2023-07-31T16:31:30;3.95;;;1.30;;
54557;SDS011;40452;50.080;20.040;2023-07-31T16:33:56;5.30;;;1.35;;
54557;SDS011;40452;50.080;20.040;2023-07-31T16:36:23;6.78;;;1.48;;
54557;SDS011;40452;50.080;20.040;2023-07-31T16:38:49;3.88;;;1.50;;
54557;SDS011;40452;50.080;20.040;2023-07-31T16:41:15;5.65;;;1.42;;
54557;SDS011;40452;50.080;20.040;2023-07-31T16:43:41;5.22;;;1.40;;
54557;SDS011;40452;50.080;20.040;2023-07-31T16:46:07;8.95;;;1.70;;
54557;SDS011;40452;50.080;20.040;2023-07-31T16:48:33;2.83;;;1.48;;
54557;SDS011;40452;50.080;20.040;2023-07-31T16:50:58;5.35;;;1.40;;
54557;SDS011;40452;50.080;20.040;2023-07-31T16:53:24;4.35;;;1.20;;
54557;SDS011;40452;50.080;20.040;2023-07-31T16:55:49;3.38;;;1.30;;
54557;SDS011;40452;50.080;20.040;2023-07-31T16:58:15;3.17;;;1.20;;
54557;SDS011;40452;50.080;20.040;2023-07-31T17:00:41;3.53;;;1.40;;
54557;SDS011;40452;50.080;20.040;2023-07-31T17:03:06;3.88;;;1.30;;
54557;SDS011;40452;50.080;20.040;2023-07-31T17:05:32;4.25;;;1.38;;
54557;SDS011;40452;50.080;20.040;2023-07-31T17:07:58;4.05;;;1.73;;
54557;SDS011;40452;50.080;20.040;2023-07-31T17:10:23;5.38;;;1.70;;
54557;SDS011;40452;50.080;20.040;2023-07-31T17:12:49;4.68;;;1.63;;
54557;SDS011;40452;50.080;20.040;2023-07-31T17:15:15;3.60;;;1.65;;
54557;SDS011;40452;50.080;20.040;2023-07-31T17:17:40;7.93;;;1.63;;
54557;SDS011;40452;50.080;20.040;2023-07-31T17:20:06;2.42;;;1.40;;
54557;SDS011;40452;50.080;20.040;2023-07-31T17:22:32;4.65;;;1.40;;
54557;SDS011;40452;50.080;20.040;2023-07-31T17:24:58;3.83;;;1.60;;
54557;SDS011;40452;50.080;20.040;2023-07-31T17:27:23;3.22;;;1.40;;
54557;SDS011;40452;50.080;20.040;2023-07-31T17:29:50;3.10;;;1.23;;
54557;SDS011;40452;50.080;20.040;2023-07-31T17:32:15;5.13;;;1.40;;
54557;SDS011;40452;50.080;20.040;2023-07-31T17:34:41;4.47;;;1.40;;
54557;SDS011;40452;50.080;20.040;2023-07-31T17:37:08;3.25;;;1.55;;
54557;SDS011;40452;50.080;20.040;2023-07-31T17:39:33;2.45;;;1.35;;
54557;SDS011;40452;50.080;20.040;2023-07-31T17:41:59;6.50;;;1.50;;
54557;SDS011;40452;50.080;20.040;2023-07-31T17:44:25;4.55;;;1.38;;
54557;SDS011;40452;50.080;20.040;2023-07-31T17:46:50;4.05;;;1.05;;
54557;SDS011;40452;50.080;20.040;2023-07-31T17:49:16;3.42;;;1.20;;
54557;SDS011;40452;50.080;20.040;2023-07-31T17:51:42;2.53;;;1.40;;
54557;SDS011;40452;50.080;20.040;2023-07-31T17:54:07;3.35;;;1.60;;
54557;SDS011;40452;50.080;20.040;2023-07-31T17:56:33;7.65;;;1.48;;
54557;SDS011;40452;50.080;20.040;2023-07-31T17:59:02;4.85;;;1.88;;
54557;SDS011;40452;50.080;20.040;2023-07-31T18:01:29;5.65;;;1.90;;
54557;SDS011;40452;50.080;20.040;2023-07-31T18:03:54;3.92;;;1.38;;
54557;SDS011;40452;50.080;20.040;2023-07-31T18:06:20;4.85;;;1.58;;
54557;SDS011;40452;50.080;20.040;2023-07-31T18:08:46;4.55;;;2.17;;
54557;SDS011;40452;50.080;20.040;2023-07-31T18:11:11;8.32;;;4.75;;
54557;SDS011;40452;50.080;20.040;2023-07-31T18:13:38;4.85;;;2.40;;
54557;SDS011;40452;50.080;20.040;2023-07-31T18:16:04;4.25;;;1.75;;
54557;SDS011;40452;50.080;20.040;2023-07-31T18:18:29;8.57;;;4.63;;
54557;SDS011;40452;50.080;20.040;2023-07-31T18:20:55;6.70;;;3.47;;
54557;SDS011;40452;50.080;20.040;2023-07-31T18:23:20;7.13;;;4.93;;
54557;SDS011;40452;50.080;20.040;2023-07-31T18:25:46;9.57;;;6.25;;
54557;SDS011;40452;50.080;20.040;2023-07-31T18:28:12;6.93;;;3.67;;
54557;SDS011;40452;50.080;20.040;2023-07-31T18:30:38;8.07;;;4.28;;
54557;SDS011;40452;50.080;20.040;2023-07-31T18:33:04;6.07;;;2.60;;
54557;SDS011;40452;50.080;20.040;2023-07-31T18:35:30;4.57;;;2.65;;
54557;SDS011;40452;50.080;20.040;2023-07-31T18:37:55;4.40;;;2.42;;
54557;SDS011;40452;50.080;20.040;2023-07-31T18:40:21;4.80;;;2.47;;
54557;SDS011;40452;50.080;20.040;2023-07-31T18:42:46;4.45;;;2.35;;
54557;SDS011;40452;50.080;20.040;2023-07-31T18:45:12;4.43;;;2.30;;
54557;SDS011;40452;50.080;20.040;2023-07-31T18:47:38;6.13;;;2.67;;
54557;SDS011;40452;50.080;20.040;2023-07-31T18:50:03;4.00;;;2.40;;
54557;SDS011;40452;50.080;20.040;2023-07-31T18:52:30;5.22;;;2.13;;
54557;SDS011;40452;50.080;20.040;2023-07-31T18:54:56;5.43;;;2.67;;
54557;SDS011;40452;50.080;20.040;2023-07-31T18:57:22;6.18;;;2.25;;
54557;SDS011;40452;50.080;20.040;2023-07-31T18:59:47;4.47;;;2.00;;
54557;SDS011;40452;50.080;20.040;2023-07-31T19:02:13;9.70;;;2.17;;
54557;SDS011;40452;50.080;20.040;2023-07-31T19:04:39;4.40;;;1.77;;
54557;SDS011;40452;50.080;20.040;2023-07-31T19:07:04;5.47;;;2.10;;
54557;SDS011;40452;50.080;20.040;2023-07-31T19:09:33;4.03;;;2.20;;
54557;SDS011;40452;50.080;20.040;2023-07-31T19:12:00;9.55;;;2.08;;
54557;SDS011;40452;50.080;20.040;2023-07-31T19:14:26;4.40;;;1.90;;
54557;SDS011;40452;50.080;20.040;2023-07-31T19:16:51;6.63;;;2.33;;
54557;SDS011;40452;50.080;20.040;2023-07-31T19:19:19;15.07;;;2.67;;
54557;SDS011;40452;50.080;20.040;2023-07-31T19:21:45;2.97;;;1.63;;
54557;SDS011;40452;50.080;20.040;2023-07-31T19:24:10;5.05;;;1.90;;
54557;SDS011;40452;50.080;20.040;2023-07-31T19:26:36;4.28;;;1.85;;
54557;SDS011;40452;50.080;20.040;2023-07-31T19:29:02;5.50;;;2.15;;
54557;SDS011;40452;50.080;20.040;2023-07-31T19:31:27;4.57;;;2.08;;
54557;SDS011;40452;50.080;20.040;2023-07-31T19:33:53;5.50;;;2.03;;
54557;SDS011;40452;50.080;20.040;2023-07-31T19:36:19;6.65;;;2.00;;
54557;SDS011;40452;50.080;20.040;2023-07-31T19:38:44;4.78;;;2.13;;
54557;SDS011;40452;50.080;20.040;2023-07-31T19:41:10;4.55;;;2.20;;
54557;SDS011;40452;50.080;20.040;2023-07-31T19:43:36;6.20;;;2.22;;
54557;SDS011;40452;50.080;20.040;2023-07-31T19:46:01;6.05;;;2.03;;
54557;SDS011;40452;50.080;20.040;2023-07-31T19:48:27;6.90;;;2.30;;
54557;SDS011;40452;50.080;20.040;2023-07-31T19:50:52;4.25;;;2.20;;
54557;SDS011;40452;50.080;20.040;2023-07-31T19:53:18;7.93;;;2.70;;
54557;SDS011;40452;50.080;20.040;2023-07-31T19:55:44;5.95;;;2.83;;
54557;SDS011;40452;50.080;20.040;2023-07-31T19:58:09;8.35;;;2.60;;
54557;SDS011;40452;50.080;20.040;2023-07-31T20:00:35;5.05;;;2.30;;
54557;SDS011;40452;50.080;20.040;2023-07-31T20:03:01;7.72;;;2.33;;
54557;SDS011;40452;50.080;20.040;2023-07-31T20:05:27;4.38;;;2.30;;
54557;SDS011;40452;50.080;20.040;2023-07-31T20:07:52;3.53;;;2.38;;
54557;SDS011;40452;50.080;20.040;2023-07-31T20:10:18;6.40;;;2.72;;
54557;SDS011;40452;50.080;20.040;2023-07-31T20:12:44;7.90;;;2.40;;
54557;SDS011;40452;50.080;20.040;2023-07-31T20:15:19;5.13;;;2.65;;
54557;SDS011;40452;50.080;20.040;2023-07-31T20:17:46;12.13;;;2.47;;
54557;SDS011;40452;50.080;20.040;2023-07-31T20:20:12;3.55;;;1.90;;
54557;SDS011;40452;50.080;20.040;2023-07-31T20:22:38;8.80;;;2.28;;
54557;SDS011;40452;50.080;20.040;2023-07-31T20:25:04;5.18;;;2.08;;
54557;SDS011;40452;50.080;20.040;2023-07-31T20:27:30;4.70;;;2.20;;
54557;SDS011;40452;50.080;20.040;2023-07-31T20:29:55;4.75;;;2.30;;
